createdAt,value
2023-01-07T00:03:50.000Z,10.03
2023-01-07T00:08:44.000Z,10
2023-01-07T00:13:39.000Z,9.95
2023-01-07T00:18:30.000Z,9.9
2023-01-07T00:23:25.000Z,9.9
2023-01-07T00:28:17.000Z,9.88
2023-01-07T00:33:11.000Z,9.86
2023-01-07T00:38:05.000Z,9.93
2023-01-07T00:42:59.000Z,9.95
2023-01-07T00:47:54.000Z,9.91
2023-01-07T00:52:48.000Z,9.94
2023-01-07T00:57:43.000Z,9.89
2023-01-07T01:02:37.000Z,9.83
2023-01-07T01:07:32.000Z,9.9
2023-01-07T01:12:26.000Z,9.87
2023-01-07T01:17:21.000Z,9.87
2023-01-07T01:22:14.000Z,9.91
2023-01-07T01:27:09.000Z,9.94
2023-01-07T01:32:03.000Z,9.91
2023-01-07T01:36:58.000Z,9.92
2023-01-07T01:41:53.000Z,9.95
2023-01-07T01:46:47.000Z,9.95
2023-01-07T01:51:41.000Z,9.9
2023-01-07T01:56:36.000Z,9.93
2023-01-07T02:01:31.000Z,9.9
2023-01-07T02:06:25.000Z,9.89
2023-01-07T02:11:19.000Z,9.89
2023-01-07T02:16:13.000Z,9.88
2023-01-07T02:21:08.000Z,9.85
2023-01-07T02:26:02.000Z,9.81
2023-01-07T02:30:56.000Z,9.8
2023-01-07T02:35:51.000Z,9.76
2023-01-07T02:40:45.000Z,9.75
2023-01-07T02:45:40.000Z,9.71
2023-01-07T02:50:34.000Z,9.68
2023-01-07T02:55:28.000Z,9.65
2023-01-07T03:00:23.000Z,9.59
2023-01-07T03:05:17.000Z,9.55
2023-01-07T03:10:09.000Z,9.58
2023-01-07T03:15:03.000Z,9.58
2023-01-07T03:19:58.000Z,9.58
2023-01-07T03:24:51.000Z,9.57
2023-01-07T03:29:46.000Z,9.51
2023-01-07T03:34:40.000Z,9.52
2023-01-07T03:39:35.000Z,9.49
2023-01-07T03:44:29.000Z,9.52
2023-01-07T03:49:23.000Z,9.49
2023-01-07T03:54:17.000Z,9.49
2023-01-07T03:59:11.000Z,9.52
2023-01-07T04:04:04.000Z,9.5
2023-01-07T04:08:59.000Z,9.54
2023-01-07T04:13:53.000Z,9.55
2023-01-07T04:18:48.000Z,9.52
2023-01-07T04:23:42.000Z,9.5
2023-01-07T04:28:35.000Z,9.48
2023-01-07T04:33:29.000Z,9.41
2023-01-07T04:38:24.000Z,9.35
2023-01-07T04:43:18.000Z,9.33
2023-01-07T04:48:12.000Z,9.29
2023-01-07T04:53:07.000Z,9.28
2023-01-07T04:58:00.000Z,9.21
2023-01-07T05:02:54.000Z,9.19
2023-01-07T05:07:49.000Z,9.13
2023-01-07T05:12:43.000Z,9.13
2023-01-07T05:17:37.000Z,9.09
2023-01-07T05:22:32.000Z,9.09
2023-01-07T05:27:26.000Z,9.03
2023-01-07T05:32:21.000Z,9.04
2023-01-07T05:37:13.000Z,9.04
2023-01-07T05:42:08.000Z,9.02
2023-01-07T05:47:01.000Z,9.06
2023-01-07T05:51:55.000Z,9.05
2023-01-07T05:56:49.000Z,9.06
2023-01-07T06:01:41.000Z,9.04
2023-01-07T06:06:35.000Z,9.08
2023-01-07T06:11:30.000Z,9.06
2023-01-07T06:16:24.000Z,9.14
2023-01-07T06:21:18.000Z,9.11
2023-01-07T06:26:13.000Z,9.07
2023-01-07T06:31:07.000Z,9.11
2023-01-07T06:36:02.000Z,9.14
2023-01-07T06:40:55.000Z,9.15
2023-01-07T06:45:50.000Z,9.17
2023-01-07T06:50:44.000Z,9.11
2023-01-07T06:55:39.000Z,9.13
2023-01-07T07:00:33.000Z,9.27
2023-01-07T07:05:28.000Z,9.4
2023-01-07T07:10:22.000Z,9.2
2023-01-07T07:15:16.000Z,9.14
2023-01-07T07:20:10.000Z,9.09
2023-01-07T07:25:04.000Z,9.09
2023-01-07T07:29:59.000Z,9.1
2023-01-07T07:34:54.000Z,9.08
2023-01-07T07:39:47.000Z,9.04
2023-01-07T07:44:41.000Z,9.04
2023-01-07T07:49:36.000Z,9.07
2023-01-07T07:54:30.000Z,9.29
2023-01-07T07:59:24.000Z,9.37
2023-01-07T08:04:19.000Z,9.07
2023-01-07T08:09:13.000Z,9.07
2023-01-07T08:14:07.000Z,9.07
2023-01-07T08:19:02.000Z,9.17
2023-01-07T08:23:55.000Z,9.19
2023-01-07T08:28:49.000Z,9.19
2023-01-07T08:33:43.000Z,9.2
2023-01-07T08:38:38.000Z,9.19
2023-01-07T08:43:32.000Z,9.27
2023-01-07T08:48:26.000Z,9.28
2023-01-07T08:53:19.000Z,9.31
2023-01-07T08:58:13.000Z,9.29
2023-01-07T09:03:08.000Z,9.32
2023-01-07T09:08:02.000Z,9.27
2023-01-07T09:12:56.000Z,9.33
2023-01-07T09:17:51.000Z,9.38
2023-01-07T09:22:45.000Z,9.39
2023-01-07T09:27:39.000Z,9.36
2023-01-07T09:32:33.000Z,9.38
2023-01-07T09:37:27.000Z,9.4
2023-01-07T09:42:22.000Z,9.64
2023-01-07T09:47:16.000Z,9.9
2023-01-07T09:52:10.000Z,9.7
2023-01-07T09:57:05.000Z,9.77
2023-01-07T10:01:59.000Z,9.8
2023-01-07T10:06:53.000Z,9.8
2023-01-07T10:11:47.000Z,9.98
2023-01-07T10:16:40.000Z,10.19
2023-01-07T10:21:32.000Z,10.25
2023-01-07T10:26:27.000Z,10.03
2023-01-07T10:31:21.000Z,10.2
2023-01-07T10:36:14.000Z,10.35
2023-01-07T10:41:08.000Z,10.34
2023-01-07T10:46:02.000Z,10.53
2023-01-07T10:50:56.000Z,10.32
2023-01-07T10:55:51.000Z,10.58
2023-01-07T11:00:44.000Z,10.8
2023-01-07T11:05:39.000Z,11
2023-01-07T11:10:33.000Z,10.86
2023-01-07T11:15:26.000Z,11.15
2023-01-07T11:20:20.000Z,10.97
2023-01-07T11:25:13.000Z,10.84
2023-01-07T11:30:05.000Z,10.61
2023-01-07T11:35:00.000Z,10.57
2023-01-07T11:39:54.000Z,10.21
2023-01-07T11:44:47.000Z,10.54
2023-01-07T11:49:42.000Z,10.44
2023-01-07T11:54:36.000Z,10.71
2023-01-07T11:59:31.000Z,10.76
2023-01-07T12:04:25.000Z,10.68
2023-01-07T12:09:19.000Z,10.64
2023-01-07T12:14:13.000Z,10.4
2023-01-07T12:19:07.000Z,10.68
2023-01-07T12:24:01.000Z,10.46
2023-01-07T12:28:55.000Z,10.78
2023-01-07T12:33:49.000Z,10.66
2023-01-07T12:38:43.000Z,10.47
2023-01-07T12:43:36.000Z,10.23
2023-01-07T12:48:31.000Z,10.28
2023-01-07T12:53:25.000Z,10.26
2023-01-07T12:58:20.000Z,10.25
2023-01-07T13:03:14.000Z,10.26
2023-01-07T13:08:09.000Z,10.12
2023-01-07T13:13:03.000Z,10.22
2023-01-07T13:17:58.000Z,10.17
2023-01-07T13:22:53.000Z,10.08
2023-01-07T13:27:46.000Z,9.99
2023-01-07T13:32:38.000Z,9.94
2023-01-07T13:37:32.000Z,9.93
2023-01-07T13:42:26.000Z,10
2023-01-07T13:47:21.000Z,10.1
2023-01-07T13:52:15.000Z,10.12
2023-01-07T13:57:09.000Z,10.1
2023-01-07T14:02:04.000Z,10.02
2023-01-07T14:06:58.000Z,9.98
2023-01-07T14:11:53.000Z,9.99
2023-01-07T14:16:47.000Z,10.02
2023-01-07T14:21:41.000Z,10.08
2023-01-07T14:26:35.000Z,10.01
2023-01-07T14:31:29.000Z,9.96
2023-01-07T14:36:23.000Z,10.13
2023-01-07T14:41:17.000Z,10.09
2023-01-07T14:46:11.000Z,9.95
2023-01-07T14:51:06.000Z,9.99
2023-01-07T14:56:00.000Z,9.85
2023-01-07T15:00:54.000Z,9.82
2023-01-07T15:05:49.000Z,9.82
2023-01-07T15:10:42.000Z,9.78
2023-01-07T15:15:36.000Z,9.72
2023-01-07T15:20:31.000Z,9.76
2023-01-07T15:25:25.000Z,9.79
2023-01-07T15:30:20.000Z,9.77
2023-01-07T15:35:14.000Z,9.78
2023-01-07T15:40:09.000Z,9.75
2023-01-07T15:45:03.000Z,9.72
2023-01-07T15:49:57.000Z,9.67
2023-01-07T15:54:51.000Z,9.53
2023-01-07T15:59:44.000Z,9.48
2023-01-07T16:04:37.000Z,9.32
2023-01-07T16:09:31.000Z,9.19
2023-01-07T16:14:25.000Z,9.29
2023-01-07T16:19:20.000Z,9.35
2023-01-07T16:24:13.000Z,9.34
2023-01-07T16:29:08.000Z,9.18
2023-01-07T16:34:02.000Z,9.14
2023-01-07T16:38:56.000Z,8.95
2023-01-07T16:43:49.000Z,8.92
2023-01-07T16:48:43.000Z,8.78
2023-01-07T16:53:37.000Z,8.71
2023-01-07T16:58:30.000Z,8.6
2023-01-07T17:03:25.000Z,8.56
2023-01-07T17:08:19.000Z,8.46
2023-01-07T17:13:11.000Z,8.45
2023-01-07T17:18:05.000Z,8.32
2023-01-07T17:22:57.000Z,8.38
2023-01-07T17:27:51.000Z,8.44
2023-01-07T17:32:46.000Z,8.48
2023-01-07T17:37:41.000Z,8.49
2023-01-07T17:42:35.000Z,8.6
2023-01-07T17:47:29.000Z,8.5
2023-01-07T17:52:24.000Z,8.54
2023-01-07T17:57:18.000Z,8.79
2023-01-07T18:02:11.000Z,8.64
2023-01-07T18:07:03.000Z,8.71
2023-01-07T18:11:58.000Z,8.87
2023-01-07T18:16:52.000Z,8.91
2023-01-07T18:21:47.000Z,8.99
2023-01-07T18:26:41.000Z,8.91
2023-01-07T18:31:35.000Z,9.08
2023-01-07T18:36:30.000Z,9.06
2023-01-07T18:41:24.000Z,9.13
2023-01-07T18:46:17.000Z,9.27
2023-01-07T18:51:11.000Z,9.35
2023-01-07T18:56:04.000Z,9.46
2023-01-07T19:00:55.000Z,9.41
2023-01-07T19:05:47.000Z,9.6
2023-01-07T19:10:42.000Z,9.67
2023-01-07T19:15:36.000Z,9.78
2023-01-07T19:20:30.000Z,9.82
2023-01-07T19:25:23.000Z,9.71
2023-01-07T19:30:17.000Z,9.68
2023-01-07T19:35:12.000Z,9.82
2023-01-07T19:40:04.000Z,9.93
2023-01-07T19:44:59.000Z,9.78
2023-01-07T19:49:53.000Z,9.78
2023-01-07T19:54:47.000Z,9.85
2023-01-07T19:59:42.000Z,10.02
2023-01-07T20:04:35.000Z,10.02
2023-01-07T20:09:30.000Z,10.02
2023-01-07T20:14:24.000Z,10.02
2023-01-07T20:19:18.000Z,10.06
2023-01-07T20:24:12.000Z,9.93
2023-01-07T20:29:06.000Z,9.97
2023-01-07T20:33:58.000Z,10.04
2023-01-07T20:38:53.000Z,9.99
2023-01-07T20:43:47.000Z,10.01
2023-01-07T20:48:41.000Z,10.05
2023-01-07T20:53:35.000Z,10.1
2023-01-07T20:58:30.000Z,9.85
2023-01-07T21:03:24.000Z,9.76
2023-01-07T21:08:15.000Z,9.76
2023-01-07T21:13:10.000Z,9.56
2023-01-07T21:18:04.000Z,9.47
2023-01-07T21:22:59.000Z,9.44
2023-01-07T21:27:53.000Z,9.44
2023-01-07T21:32:48.000Z,9.25
2023-01-07T21:37:42.000Z,9.21
2023-01-07T21:42:34.000Z,9.08
2023-01-07T21:47:28.000Z,9.12
2023-01-07T21:52:20.000Z,9.12
2023-01-07T21:57:15.000Z,9.25
2023-01-07T22:02:09.000Z,9.31
2023-01-07T22:07:04.000Z,9.38
2023-01-07T22:11:58.000Z,9.6
2023-01-07T22:16:53.000Z,9.68
2023-01-07T22:21:45.000Z,9.71
2023-01-07T22:26:39.000Z,9.84
2023-01-07T22:31:33.000Z,9.87
2023-01-07T22:36:28.000Z,9.84
2023-01-07T22:41:22.000Z,9.88
2023-01-07T22:46:17.000Z,9.85
2023-01-07T22:51:11.000Z,9.83
2023-01-07T22:56:03.000Z,9.76
2023-01-07T23:00:58.000Z,9.78
2023-01-07T23:05:52.000Z,9.68
2023-01-07T23:10:46.000Z,9.67
2023-01-07T23:15:41.000Z,9.6
2023-01-07T23:20:35.000Z,9.5
2023-01-07T23:25:27.000Z,9.53
2023-01-07T23:30:22.000Z,9.5
2023-01-07T23:35:16.000Z,9.5
2023-01-07T23:40:10.000Z,9.5
2023-01-07T23:45:03.000Z,9.43
2023-01-07T23:49:55.000Z,9.44
2023-01-07T23:54:50.000Z,9.25
2023-01-07T23:59:44.000Z,9.41
